Аэропорт: Орск. Орск

ICAO: UWOR

METAR:
2020-10-19 22:00:00
UWOR 192200Z 19005MPS CAVOK 07/M06 Q1015 R25/CLRD65 NOSIG RMK QFE737/0983
METAR:
2020-10-19 19:59:00
TAF UWOR 191959Z 1921/2006 21006G12MPS 9999 BKN020 TX09/2006Z TN04/2002Z TEMPO 1921/2006 23005G10MPS